As Federica — V2GT5 — position and weather

sailwx.info

Track history (hours):
 
Tides and Currents Weather Stations Pressure Air Temp Water Temp Dewpoint Dewpoint Depression Visibility Wind Speed Wind Dir Waves Ship Positions

As Federica

Last reported at 2017-Nov-22 19:59 UTC. Time now 2017-Dec-14 04:22 UTC.
Position N 26°04' W 080°07'.
Warning: this ship's position is 21 days out of date.

Length 166 m; draft 6.7 m.

Type: Ship (hazmat cat C). MMSI: 304083000.

Date/timePositionNaut miles runAvg speedWind from/ knotsBaromVisibWave heightAir tempDewpointWater temp
2017-Nov-22 19:59N 26°04' W 080°07'0 0.0
2017-Nov-22 19:17N 26°04' W 080°07'  
2017-Nov-19 22:35N 18°18' W 064°59'1 3.0
2017-Nov-19 22:13N 18°17' W 064°60'1 0.7
2017-Nov-19 20:59N 18°17' W 064°59'1 1.7
2017-Nov-19 20:30N 18°17' W 064°59'11 8.7
2017-Nov-19 19:13N 18°10' W 064°50'418.1
2017-Nov-19 18:59N 18°07' W 064°47'28518.5
2017-Nov-19 03:34N 14°39' W 061°24'319.1
2017-Nov-19 03:24N 14°37' W 061°22'819.7
2017-Nov-19 03:01N 14°31' W 061°16'1019.8
2017-Nov-19 02:31N 14°25' W 061°09'1019.8
2017-Nov-19 02:00N 14°18' W 061°01'1119.2
2017-Nov-19 01:27N 14°11' W 060°53'  
Track history (hours):
 
Tides and Currents Weather Stations Pressure Air Temp Water Temp Dewpoint Dewpoint Depression Visibility Wind Speed Wind Dir Waves Ship Positions

As Federica

Last reported at 2017-Nov-22 19:59 UTC. Time now 2017-Dec-14 04:22 UTC.
Position N 26°04' W 080°07'.
Warning: this ship's position is 21 days out of date.

Length 166 m; draft 6.7 m.

Type: Ship (hazmat cat C). MMSI: 304083000.

Date/timePositionNaut miles runAvg speedWind from/ knotsBaromVisibWave heightAir tempDewpointWater temp
2017-Nov-22 19:59N 26°04' W 080°07'0 0.0
2017-Nov-22 19:17N 26°04' W 080°07'  
2017-Nov-19 22:35N 18°18' W 064°59'1 3.0
2017-Nov-19 22:13N 18°17' W 064°60'1 0.7
2017-Nov-19 20:59N 18°17' W 064°59'1 1.7
2017-Nov-19 20:30N 18°17' W 064°59'11 8.7
2017-Nov-19 19:13N 18°10' W 064°50'418.1
2017-Nov-19 18:59N 18°07' W 064°47'28518.5
2017-Nov-19 03:34N 14°39' W 061°24'319.1
2017-Nov-19 03:24N 14°37' W 061°22'819.7
2017-Nov-19 03:01N 14°31' W 061°16'1019.8
2017-Nov-19 02:31N 14°25' W 061°09'1019.8
2017-Nov-19 02:00N 14°18' W 061°01'1119.2
2017-Nov-19 01:27N 14°11' W 060°53'  

Dump ship's entire track history